createdAt,value
2018-12-09T00:00:23.372Z,991.42
2018-12-09T00:01:23.436Z,991.55
2018-12-09T00:02:23.495Z,991.45
2018-12-09T00:03:23.570Z,991.46
2018-12-09T00:04:23.627Z,991.43
2018-12-09T00:05:23.696Z,991.48
2018-12-09T00:06:23.744Z,991.53
2018-12-09T00:07:23.804Z,991.54
2018-12-09T00:08:23.875Z,991.56
2018-12-09T00:09:23.932Z,991.53
2018-12-09T00:10:23.988Z,991.64
2018-12-09T00:11:24.048Z,991.75
2018-12-09T00:12:24.112Z,991.70
2018-12-09T00:13:24.176Z,991.72
2018-12-09T00:14:24.468Z,991.70
2018-12-09T00:15:24.296Z,991.69
2018-12-09T00:16:24.370Z,991.66
2018-12-09T00:17:24.417Z,991.65
2018-12-09T00:18:24.481Z,991.63
2018-12-09T00:19:24.552Z,991.71
2018-12-09T00:20:24.608Z,991.73
2018-12-09T00:21:24.665Z,991.74
2018-12-09T00:22:24.724Z,991.88
2018-12-09T00:23:24.785Z,991.80
2018-12-09T00:24:24.853Z,991.74
2018-12-09T00:25:24.917Z,991.74
2018-12-09T00:26:24.969Z,991.86
2018-12-09T00:27:25.033Z,991.79
2018-12-09T00:28:25.093Z,991.80
2018-12-09T00:29:25.276Z,991.77
2018-12-09T00:30:25.221Z,991.80
2018-12-09T00:31:25.289Z,991.84
2018-12-09T00:32:25.341Z,991.68
2018-12-09T00:33:25.405Z,991.71
2018-12-09T00:34:25.469Z,991.85
2018-12-09T00:35:25.537Z,991.71
2018-12-09T00:36:25.584Z,991.79
2018-12-09T00:37:25.647Z,991.75
2018-12-09T00:38:25.709Z,991.73
2018-12-09T00:39:25.778Z,991.87
2018-12-09T00:40:25.837Z,991.81
2018-12-09T00:41:25.890Z,991.77
2018-12-09T00:42:25.953Z,991.82
2018-12-09T00:43:26.013Z,991.76
2018-12-09T00:44:26.177Z,991.82
2018-12-09T00:45:26.135Z,991.86
2018-12-09T00:46:26.202Z,991.81
2018-12-09T00:47:26.259Z,991.76
2018-12-09T16:18:12.432Z,1002.99
2018-12-09T16:19:12.611Z,1003.01
2018-12-09T16:20:12.395Z,1003.02
2018-12-09T16:21:12.343Z,1003.06
2018-12-09T16:22:12.402Z,1003.15
2018-12-09T16:23:12.463Z,1003.24
2018-12-09T16:24:12.519Z,1003.24
2018-12-09T16:25:12.567Z,1003.33
2018-12-09T16:26:12.627Z,1003.31
2018-12-09T16:27:12.683Z,1003.46
2018-12-09T16:28:12.751Z,1003.46
2018-12-09T16:29:12.807Z,1003.50
2018-12-09T16:30:12.859Z,1003.51
2018-12-09T16:31:12.921Z,1003.51
2018-12-09T16:32:12.980Z,1003.56
2018-12-09T16:33:13.048Z,1003.61
2018-12-09T16:34:13.108Z,1003.61
2018-12-09T16:35:13.208Z,1003.67
2018-12-09T16:36:13.220Z,1003.63
2018-12-09T16:37:13.275Z,1003.74
2018-12-09T16:38:13.344Z,1003.73
2018-12-09T16:39:13.409Z,1003.71
2018-12-09T16:40:13.460Z,1003.62
2018-12-09T16:41:13.529Z,1003.75
2018-12-09T16:42:13.581Z,1003.77
2018-12-09T16:43:13.649Z,1003.69
2018-12-09T16:44:13.709Z,1003.74
2018-12-09T16:45:13.765Z,1003.75
2018-12-09T16:46:13.825Z,1003.79
2018-12-09T16:47:13.884Z,1003.81
2018-12-09T16:48:13.953Z,1003.86
2018-12-09T16:49:14.012Z,1003.84
2018-12-09T16:50:14.065Z,1003.93
2018-12-09T16:51:14.133Z,1003.92
2018-12-09T16:52:14.194Z,1003.99
2018-12-09T16:53:14.345Z,1004.02
2018-12-09T16:54:14.308Z,1004.04
2018-12-09T16:55:14.373Z,1004.10
2018-12-09T16:56:14.433Z,1004.15
2018-12-09T16:57:14.610Z,1004.27
2018-12-09T16:58:14.561Z,1004.25
2018-12-09T16:59:14.625Z,1004.34
2018-12-09T17:00:14.678Z,1004.29
2018-12-09T17:01:14.741Z,1004.34
2018-12-09T17:02:14.797Z,1004.35
2018-12-09T17:03:14.866Z,1004.37
2018-12-09T17:04:14.941Z,1004.35
2018-12-09T17:05:14.983Z,1004.37
2018-12-09T17:06:15.041Z,1004.40
2018-12-09T17:07:15.101Z,1004.44
2018-12-09T17:08:15.413Z,1004.54
2018-12-09T17:09:15.225Z,1004.54
2018-12-09T17:10:15.286Z,1004.61
2018-12-09T17:11:15.350Z,1004.59
2018-12-09T17:12:15.410Z,1004.64
2018-12-09T17:13:15.485Z,1004.69
2018-12-09T17:14:15.539Z,1004.70
2018-12-09T17:15:15.591Z,1004.70
2018-12-09T17:16:15.654Z,1004.75
2018-12-09T17:17:15.726Z,1004.78
2018-12-09T17:18:15.784Z,1004.83
2018-12-09T17:19:15.842Z,1004.83
2018-12-09T17:20:15.898Z,1004.90
2018-12-09T17:21:15.983Z,1004.85
2018-12-09T17:22:16.018Z,1004.95
2018-12-09T17:23:16.098Z,1004.98
2018-12-09T17:24:16.143Z,1004.96
2018-12-09T17:25:16.202Z,1005.00
2018-12-09T17:26:16.263Z,1004.98
2018-12-09T17:27:16.327Z,1005.00
2018-12-09T17:28:16.394Z,1005.06
2018-12-09T17:29:16.458Z,1005.12
2018-12-09T17:30:16.507Z,1005.13
2018-12-09T17:31:16.571Z,1005.14
2018-12-09T17:32:16.634Z,1005.23
2018-12-09T17:33:16.699Z,1005.21
2018-12-09T17:34:16.759Z,1005.23
2018-12-09T17:35:16.819Z,1005.29
2018-12-09T17:36:16.887Z,1005.31
2018-12-09T17:37:16.947Z,1005.39
2018-12-09T17:38:17.003Z,1005.40
2018-12-09T17:39:17.083Z,1005.39
2018-12-09T17:40:17.135Z,1005.50
2018-12-09T17:41:24.732Z,1005.46
2018-12-09T17:42:17.243Z,1005.57
2018-12-09T17:43:17.407Z,1005.54
2018-12-09T17:44:17.363Z,1005.60
2018-12-09T17:45:17.428Z,1005.57
2018-12-09T17:46:17.484Z,1005.62
2018-12-09T17:47:17.556Z,1005.55
2018-12-09T17:48:17.616Z,1005.63
2018-12-09T17:49:17.676Z,1005.65
2018-12-09T17:50:17.728Z,1005.65
2018-12-09T17:51:17.796Z,1005.63
2018-12-09T17:52:17.851Z,1005.69
2018-12-09T17:53:17.920Z,1005.65
2018-12-09T17:54:17.984Z,1005.73
2018-12-09T17:55:18.037Z,1005.77
2018-12-09T17:56:18.100Z,1005.80
2018-12-09T17:57:18.168Z,1005.88
2018-12-09T17:58:18.216Z,1005.88
2018-12-09T17:59:18.560Z,1005.91
2018-12-09T18:00:18.340Z,1005.95
2018-12-09T18:01:18.400Z,1005.99
2018-12-09T18:02:18.456Z,1006.02
2018-12-09T18:03:18.528Z,1006.03
2018-12-09T18:04:18.593Z,1006.04
2018-12-09T18:05:18.656Z,1006.09
2018-12-09T18:06:18.705Z,1006.08
2018-12-09T18:07:18.770Z,1006.10
2018-12-09T18:08:18.829Z,1006.16
2018-12-09T18:09:18.897Z,1006.10
2018-12-09T18:10:18.957Z,1006.16
2018-12-09T18:11:19.013Z,1006.13
2018-12-09T18:12:19.073Z,1006.22
2018-12-09T18:13:19.133Z,1006.24
2018-12-09T18:14:19.433Z,1006.29
2018-12-09T18:15:19.257Z,1006.33
2018-12-09T18:16:19.317Z,1006.35
2018-12-09T18:17:19.377Z,1006.42
2018-12-09T18:18:19.437Z,1006.37
2018-12-09T18:19:19.516Z,1006.40
2018-12-09T18:20:19.570Z,1006.50
2018-12-09T18:21:19.622Z,1006.45
2018-12-09T18:22:19.682Z,1006.51
2018-12-09T18:23:19.742Z,1006.50
2018-12-09T18:24:19.814Z,1006.53
2018-12-09T18:25:19.881Z,1006.54
2018-12-09T18:26:19.926Z,1006.67
2018-12-09T18:27:19.985Z,1006.61
2018-12-09T18:28:20.054Z,1006.66
2018-12-09T18:29:20.138Z,1006.67
2018-12-09T18:30:20.170Z,1006.74
2018-12-09T18:31:20.234Z,1006.77
2018-12-09T18:32:20.298Z,1006.77
2018-12-09T18:33:20.361Z,1006.76
2018-12-09T18:34:20.439Z,1006.96
2018-12-09T18:35:20.484Z,1006.90
2018-12-09T18:36:20.534Z,1006.97
2018-12-09T18:37:20.596Z,1006.92
2018-12-09T18:38:20.658Z,1006.96
2018-12-09T18:39:20.726Z,1006.98
2018-12-09T18:40:20.786Z,1006.98
2018-12-09T18:41:20.838Z,1007.00
2018-12-09T18:42:20.904Z,1007.05
2018-12-09T18:43:20.963Z,1007.06
2018-12-09T18:44:21.030Z,1007.13
2018-12-09T18:45:21.090Z,1007.17
2018-12-09T18:46:21.143Z,1007.18
2018-12-09T18:47:21.206Z,1007.19
2018-12-09T18:48:21.262Z,1007.17
2018-12-09T18:49:21.338Z,1007.22
2018-12-09T18:50:21.402Z,1007.26
2018-12-09T18:51:21.450Z,1007.28
2018-12-09T18:52:21.511Z,1007.29
2018-12-09T18:53:21.571Z,1007.40
2018-12-09T18:54:21.683Z,1007.28
2018-12-09T18:55:21.703Z,1007.24
2018-12-09T18:56:21.755Z,1007.37
2018-12-09T18:57:21.816Z,1007.44
2018-12-09T18:58:21.871Z,1007.46
2018-12-09T18:59:21.958Z,1007.52
2018-12-09T19:00:22.022Z,1007.56
2018-12-09T19:01:22.067Z,1007.53
2018-12-09T19:02:22.122Z,1007.63
2018-12-09T19:03:22.179Z,1007.59
2018-12-09T19:04:22.296Z,1007.55
2018-12-09T19:05:22.300Z,1007.64
2018-12-09T19:06:22.363Z,1007.65
2018-12-09T19:07:22.424Z,1007.69
2018-12-09T19:08:22.485Z,1007.74
2018-12-09T19:09:22.552Z,1007.78
2018-12-09T19:10:22.623Z,1007.74
2018-12-09T19:11:22.664Z,1007.80
2018-12-09T19:12:22.730Z,1007.87
2018-12-09T19:13:22.793Z,1007.86
2018-12-09T19:14:22.856Z,1007.87
2018-12-09T19:15:22.916Z,1007.90
2018-12-09T19:16:22.968Z,1007.92
2018-12-09T19:17:23.028Z,1007.90
2018-12-09T19:18:23.088Z,1007.97
2018-12-09T19:19:23.263Z,1007.95
2018-12-09T19:20:23.297Z,1007.99
2018-12-09T19:21:23.276Z,1008.01
2018-12-09T19:22:23.336Z,1008.02
2018-12-09T19:23:23.392Z,1008.02
2018-12-09T19:24:23.519Z,1008.07
2018-12-09T19:25:23.520Z,1008.08
2018-12-09T19:26:23.576Z,1008.09
2018-12-09T19:27:23.637Z,1008.16
2018-12-09T19:28:23.701Z,1008.20
2018-12-09T19:29:23.769Z,1008.17
2018-12-09T19:30:23.825Z,1008.20
2018-12-09T19:31:23.881Z,1008.24
2018-12-09T19:32:23.941Z,1008.25
2018-12-09T19:33:24.009Z,1008.26
2018-12-09T19:34:24.069Z,1008.27
2018-12-09T19:35:24.129Z,1008.35
2018-12-09T19:36:24.185Z,1008.36
2018-12-09T19:37:24.245Z,1008.37
2018-12-09T19:38:24.305Z,1008.40
2018-12-09T19:39:24.374Z,1008.46
2018-12-09T19:40:24.435Z,1008.52
2018-12-09T19:41:24.489Z,1008.47
2018-12-09T19:42:24.546Z,1008.53
2018-12-09T19:43:24.618Z,1008.53
2018-12-09T19:44:24.678Z,1008.57
2018-12-09T19:45:24.742Z,1008.55
2018-12-09T19:46:24.790Z,1008.56
2018-12-09T19:47:24.850Z,1008.53
2018-12-09T19:48:24.914Z,1008.56
2018-12-09T19:49:24.986Z,1008.53
2018-12-09T19:50:25.042Z,1008.54
2018-12-09T19:51:25.094Z,1008.58
2018-12-09T19:52:25.154Z,1008.62
2018-12-09T19:53:25.214Z,1008.63
2018-12-09T19:54:25.418Z,1008.63
2018-12-09T19:55:25.342Z,1008.65
2018-12-09T19:56:25.398Z,1008.68
2018-12-09T19:57:25.459Z,1008.70
2018-12-09T19:58:25.522Z,1008.70
2018-12-09T19:59:25.586Z,1008.72
2018-12-09T20:00:26.298Z,1008.76
2018-12-09T20:01:25.698Z,1008.79
2018-12-09T20:02:25.759Z,1008.81
2018-12-09T20:03:25.824Z,1008.85
2018-12-09T20:04:25.887Z,1008.87
2018-12-09T20:05:25.953Z,1008.88
2018-12-09T20:06:26.003Z,1008.92
2018-12-09T20:07:26.067Z,1008.98
2018-12-09T20:08:26.123Z,1008.98
2018-12-09T20:09:26.183Z,1008.99
2018-12-09T20:10:26.291Z,1009.02
2018-12-09T20:11:26.307Z,1009.04
2018-12-09T20:12:26.379Z,1009.02
2018-12-09T20:13:26.429Z,1008.99
2018-12-09T20:14:26.488Z,1009.04
2018-12-09T20:15:26.558Z,1009.05
2018-12-09T20:16:26.615Z,1009.03
2018-12-09T20:17:26.667Z,1009.02
2018-12-09T20:18:26.728Z,1009.06
2018-12-09T20:19:26.791Z,1009.04
2018-12-09T20:20:26.859Z,1009.12
2018-12-09T20:21:26.920Z,1009.09
2018-12-09T20:22:26.971Z,1009.10
2018-12-09T20:23:27.032Z,1009.12
2018-12-09T20:24:27.094Z,1009.08
2018-12-09T20:25:27.154Z,1009.17
2018-12-09T20:26:27.244Z,1009.12
2018-12-09T20:27:27.975Z,1009.11
2018-12-09T20:28:27.336Z,1009.13
2018-12-09T20:29:27.411Z,1009.16
2018-12-09T20:30:27.456Z,1009.16
2018-12-09T20:31:27.524Z,1009.24
2018-12-09T20:32:35.021Z,1009.20
2018-12-09T20:33:27.637Z,1009.18
2018-12-09T20:34:27.700Z,1009.23
2018-12-09T20:35:27.760Z,1009.20
2018-12-09T20:36:27.828Z,1009.25
2018-12-09T20:37:27.889Z,1009.25
2018-12-09T20:38:27.940Z,1009.30
2018-12-09T20:39:28.001Z,1009.27
2018-12-09T20:40:28.061Z,1009.34
2018-12-09T20:41:28.466Z,1009.39
2018-12-09T20:42:28.184Z,1009.40
2018-12-09T20:43:28.240Z,1009.42
2018-12-09T20:44:28.305Z,1009.47
2018-12-09T20:45:28.364Z,1009.51
2018-12-09T20:46:28.432Z,1009.47
2018-12-09T20:47:28.731Z,1009.52
2018-12-09T20:48:28.548Z,1009.50
2018-12-09T20:49:28.608Z,1009.48
2018-12-09T20:50:28.675Z,1009.51
2018-12-09T20:51:28.724Z,1009.58
2018-12-09T20:52:28.801Z,1009.65
2018-12-09T20:53:28.853Z,1009.62
2018-12-09T20:54:28.904Z,1009.63
2018-12-09T20:55:30.971Z,1009.64
2018-12-09T20:56:29.029Z,1009.67
2018-12-09T20:57:29.120Z,1009.63
2018-12-09T20:58:29.171Z,1009.65
2018-12-09T20:59:29.209Z,1009.69
2018-12-09T21:00:29.269Z,1009.59
2018-12-09T21:01:29.332Z,1009.63
2018-12-09T21:02:29.397Z,1009.66
2018-12-09T21:03:29.457Z,1009.63
2018-12-09T21:04:29.509Z,1009.67
2018-12-09T21:05:29.573Z,1009.70
2018-12-09T21:06:29.634Z,1009.68
2018-12-09T21:07:29.701Z,1009.71
2018-12-09T21:08:29.761Z,1009.86
2018-12-09T21:09:29.813Z,1009.77
2018-12-09T21:10:29.873Z,1009.80
2018-12-09T21:11:29.933Z,1009.83
2018-12-09T21:12:30.002Z,1009.88
2018-12-09T21:13:30.061Z,1009.89
2018-12-09T21:14:30.114Z,1009.88
2018-12-09T21:15:30.177Z,1009.90
2018-12-09T21:16:30.237Z,1009.92
2018-12-09T21:17:30.297Z,1009.95
2018-12-09T21:18:30.402Z,1009.93
2018-12-09T21:19:30.418Z,1009.98
2018-12-09T21:20:30.483Z,1010.02
2018-12-09T21:21:30.538Z,1010.03
2018-12-09T21:22:30.598Z,1010.07
2018-12-09T21:23:30.666Z,1010.11
2018-12-09T21:24:30.730Z,1010.16
2018-12-09T21:25:30.774Z,1010.16
2018-12-09T21:26:30.838Z,1010.19
2018-12-09T21:27:32.939Z,1010.18
2018-12-09T21:28:30.970Z,1010.24
2018-12-09T21:29:31.037Z,1010.21
2018-12-09T21:30:31.082Z,1010.24
2018-12-09T21:31:31.146Z,1010.28
2018-12-09T21:32:31.202Z,1010.32
2018-12-09T21:33:31.358Z,1010.28
2018-12-09T21:34:31.323Z,1010.30
2018-12-09T21:35:31.386Z,1010.30
2018-12-09T21:36:31.451Z,1010.33
2018-12-09T21:37:31.507Z,1010.40
2018-12-09T21:38:31.575Z,1010.40
2018-12-09T21:39:31.635Z,1010.44
2018-12-09T21:40:31.691Z,1010.48
2018-12-09T21:41:31.747Z,1010.45
2018-12-09T21:42:31.811Z,1010.49
2018-12-09T21:43:31.874Z,1010.50
2018-12-09T21:44:31.943Z,1010.51
2018-12-09T21:45:31.987Z,1010.49
2018-12-09T21:46:32.051Z,1010.54
2018-12-09T21:47:32.115Z,1010.59
2018-12-09T21:48:32.203Z,1010.60
2018-12-09T21:49:32.357Z,1010.59
2018-12-09T21:50:32.297Z,1010.60
2018-12-09T21:51:32.351Z,1010.60
2018-12-09T21:52:32.415Z,1010.59
2018-12-09T21:53:32.484Z,1010.64
2018-12-09T21:54:32.539Z,1010.64
2018-12-09T21:55:32.595Z,1010.66
2018-12-09T21:56:32.656Z,1010.61
2018-12-09T21:57:32.719Z,1010.67
2018-12-09T21:58:32.784Z,1010.71
2018-12-09T21:59:32.844Z,1010.65
2018-12-09T22:00:32.896Z,1010.72
2018-12-09T22:01:32.961Z,1010.75
2018-12-09T22:02:33.016Z,1010.72
2018-12-09T22:03:33.077Z,1010.67
2018-12-09T22:04:33.180Z,1010.72
2018-12-09T22:05:33.198Z,1010.71
2018-12-09T22:06:33.288Z,1010.73
2018-12-09T22:07:33.320Z,1010.75
2018-12-09T22:08:33.382Z,1010.74
2018-12-09T22:09:33.449Z,1010.79
2018-12-09T22:10:33.508Z,1010.75
2018-12-09T22:11:33.568Z,1010.81
2018-12-09T22:12:33.624Z,1010.84
